sensor_id;sensor_type;location;lat;lon;timestamp;pressure;altitude;pressure_sealevel;temperature;humidity
73341;BME280;61578;52.002;5.468;2022-08-21T00:00:20;101680.78;;;14.05;86.62
73341;BME280;61578;52.002;5.468;2022-08-21T00:00:54;101657.44;;;13.94;86.35
73341;BME280;61578;52.002;5.468;2022-08-21T00:01:28;101678.00;;;14.07;86.47
73341;BME280;61578;52.002;5.468;2022-08-21T00:01:59;101675.56;;;14.04;86.33
73341;BME280;61578;52.002;5.468;2022-08-21T00:02:29;101670.88;;;14.07;86.23
73341;BME280;61578;52.002;5.468;2022-08-21T00:03:04;101673.63;;;14.06;86.41
73341;BME280;61578;52.002;5.468;2022-08-21T00:03:36;101676.19;;;14.07;86.52
73341;BME280;61578;52.002;5.468;2022-08-21T00:04:08;101677.91;;;14.08;86.38
73341;BME280;61578;52.002;5.468;2022-08-21T00:04:40;101631.25;;;13.87;86.17
73341;BME280;61578;52.002;5.468;2022-08-21T00:05:11;101653.72;;;13.97;86.04
73341;BME280;61578;52.002;5.468;2022-08-21T00:05:46;101676.97;;;14.09;86.11
73341;BME280;61578;52.002;5.468;2022-08-21T00:06:21;101641.75;;;13.90;86.28
73341;BME280;61578;52.002;5.468;2022-08-21T00:06:54;101658.69;;;14.03;85.80
73341;BME280;61578;52.002;5.468;2022-08-21T00:07:25;101672.56;;;14.08;86.28
73341;BME280;61578;52.002;5.468;2022-08-21T00:07:56;101661.91;;;14.08;85.95
73341;BME280;61578;52.002;5.468;2022-08-21T00:08:28;101666.47;;;14.06;85.90
73341;BME280;61578;52.002;5.468;2022-08-21T00:08:59;101603.50;;;13.62;86.38
73341;BME280;61578;52.002;5.468;2022-08-21T00:09:31;101675.34;;;14.07;86.45
73341;BME280;61578;52.002;5.468;2022-08-21T00:10:02;101672.31;;;13.98;86.19
73341;BME280;61578;52.002;5.468;2022-08-21T00:10:34;101677.06;;;14.08;86.31
73341;BME280;61578;52.002;5.468;2022-08-21T00:11:06;101672.69;;;14.07;86.04
73341;BME280;61578;52.002;5.468;2022-08-21T00:11:38;101670.41;;;14.00;86.16
73341;BME280;61578;52.002;5.468;2022-08-21T00:12:09;101675.44;;;14.05;86.34
73341;BME280;61578;52.002;5.468;2022-08-21T00:12:41;101670.88;;;14.07;86.81
73341;BME280;61578;52.002;5.468;2022-08-21T00:13:13;101673.63;;;14.06;86.38
73341;BME280;61578;52.002;5.468;2022-08-21T00:13:45;101669.16;;;14.06;86.08
73341;BME280;61578;52.002;5.468;2022-08-21T00:14:16;101670.88;;;14.07;86.18
73341;BME280;61578;52.002;5.468;2022-08-21T00:14:47;101670.88;;;14.07;86.39
73341;BME280;61578;52.002;5.468;2022-08-21T00:15:22;101672.78;;;14.05;85.81
73341;BME280;61578;52.002;5.468;2022-08-21T00:15:56;101647.19;;;13.88;86.07
73341;BME280;61578;52.002;5.468;2022-08-21T00:16:28;101633.38;;;13.82;86.01
73341;BME280;61578;52.002;5.468;2022-08-21T00:16:59;101658.44;;;13.93;86.30
73341;BME280;61578;52.002;5.468;2022-08-21T00:17:30;101642.88;;;13.86;85.87
73341;BME280;61578;52.002;5.468;2022-08-21T00:18:03;101667.31;;;13.94;86.05
73341;BME280;61578;52.002;5.468;2022-08-21T00:18:34;101628.44;;;13.76;86.23
73341;BME280;61578;52.002;5.468;2022-08-21T00:19:07;101674.81;;;14.02;86.16
73341;BME280;61578;52.002;5.468;2022-08-21T00:19:39;101632.03;;;13.75;86.41
73341;BME280;61578;52.002;5.468;2022-08-21T00:20:12;101673.00;;;14.02;86.52
73341;BME280;61578;52.002;5.468;2022-08-21T00:20:45;101641.16;;;13.85;86.08
73341;BME280;61578;52.002;5.468;2022-08-21T00:21:16;101674.81;;;14.02;86.47
73341;BME280;61578;52.002;5.468;2022-08-21T00:21:47;101631.94;;;13.76;86.47
73341;BME280;61578;52.002;5.468;2022-08-21T00:22:18;101671.66;;;13.95;86.34
73341;BME280;61578;52.002;5.468;2022-08-21T00:22:49;101673.19;;;13.99;86.44
73341;BME280;61578;52.002;5.468;2022-08-21T00:23:21;101675.84;;;13.99;86.30
73341;BME280;61578;52.002;5.468;2022-08-21T00:23:52;101676.81;;;13.98;86.54
73341;BME280;61578;52.002;5.468;2022-08-21T00:24:24;101672.31;;;13.98;86.94
73341;BME280;61578;52.002;5.468;2022-08-21T00:24:55;101674.13;;;13.98;86.47
73341;BME280;61578;52.002;5.468;2022-08-21T00:25:27;101672.31;;;13.98;86.03
73341;BME280;61578;52.002;5.468;2022-08-21T00:25:58;101674.22;;;13.96;86.20
73341;BME280;61578;52.002;5.468;2022-08-21T00:26:29;101674.31;;;13.95;86.20
73341;BME280;61578;52.002;5.468;2022-08-21T00:26:59;101680.66;;;13.94;86.51
73341;BME280;61578;52.002;5.468;2022-08-21T00:27:30;101679.66;;;13.95;86.88
73341;BME280;61578;52.002;5.468;2022-08-21T00:28:01;101677.00;;;13.95;86.50
73341;BME280;61578;52.002;5.468;2022-08-21T00:28:33;101637.50;;;13.73;86.84
73341;BME280;61578;52.002;5.468;2022-08-21T00:29:04;101677.84;;;13.95;86.87
73341;BME280;61578;52.002;5.468;2022-08-21T00:29:34;101678.72;;;13.96;86.67
73341;BME280;61578;52.002;5.468;2022-08-21T00:30:06;101673.38;;;13.96;86.79
73341;BME280;61578;52.002;5.468;2022-08-21T00:30:39;101674.22;;;13.96;86.32
73341;BME280;61578;52.002;5.468;2022-08-21T00:31:10;101670.78;;;13.94;86.36
73341;BME280;61578;52.002;5.468;2022-08-21T00:31:42;101674.31;;;13.95;86.29
73341;BME280;61578;52.002;5.468;2022-08-21T00:32:19;101645.22;;;13.78;86.71
73341;BME280;61578;52.002;5.468;2022-08-21T00:32:54;101663.09;;;13.90;86.42
73341;BME280;61578;52.002;5.468;2022-08-21T00:33:26;101664.63;;;13.94;86.08
73341;BME280;61578;52.002;5.468;2022-08-21T00:33:57;101652.06;;;13.82;86.16
73341;BME280;61578;52.002;5.468;2022-08-21T00:34:27;101665.97;;;13.87;86.44
73341;BME280;61578;52.002;5.468;2022-08-21T00:34:58;101670.34;;;13.88;85.91
73341;BME280;61578;52.002;5.468;2022-08-21T00:35:32;101674.72;;;13.89;86.43
73341;BME280;61578;52.002;5.468;2022-08-21T00:36:07;101668.63;;;13.87;86.37
73341;BME280;61578;52.002;5.468;2022-08-21T00:36:39;101674.19;;;13.84;86.29
73341;BME280;61578;52.002;5.468;2022-08-21T00:37:10;101669.69;;;13.84;86.87
73341;BME280;61578;52.002;5.468;2022-08-21T00:37:42;101668.84;;;13.84;86.68
73341;BME280;61578;52.002;5.468;2022-08-21T00:38:13;101607.25;;;13.46;86.96
73341;BME280;61578;52.002;5.468;2022-08-21T00:38:44;101670.44;;;13.86;86.82
73341;BME280;61578;52.002;5.468;2022-08-21T00:39:15;101597.66;;;13.43;86.22
73341;BME280;61578;52.002;5.468;2022-08-21T00:39:46;101655.69;;;13.81;86.86
73341;BME280;61578;52.002;5.468;2022-08-21T00:40:22;101666.91;;;13.86;86.75
73341;BME280;61578;52.002;5.468;2022-08-21T00:41:00;101663.38;;;13.85;86.67
73341;BME280;61578;52.002;5.468;2022-08-21T00:41:38;101657.09;;;13.86;86.35
73341;BME280;61578;52.002;5.468;2022-08-21T00:42:11;101653.88;;;13.81;86.61
73341;BME280;61578;52.002;5.468;2022-08-21T00:42:45;101665.00;;;13.88;86.93
73341;BME280;61578;52.002;5.468;2022-08-21T00:43:20;101627.31;;;13.66;85.92
73341;BME280;61578;52.002;5.468;2022-08-21T00:43:53;101647.31;;;13.73;86.64
73341;BME280;61578;52.002;5.468;2022-08-21T00:44:24;101666.81;;;13.87;86.54
73341;BME280;61578;52.002;5.468;2022-08-21T00:44:55;101634.34;;;13.67;86.24
73341;BME280;61578;52.002;5.468;2022-08-21T00:45:28;101661.56;;;13.86;86.34
73341;BME280;61578;52.002;5.468;2022-08-21T00:46:00;101656.28;;;13.72;86.86
73341;BME280;61578;52.002;5.468;2022-08-21T00:46:33;101612.19;;;13.52;86.15
73341;BME280;61578;52.002;5.468;2022-08-21T00:47:04;101655.03;;;13.77;86.61
73341;BME280;61578;52.002;5.468;2022-08-21T00:47:35;101622.56;;;13.56;86.70
73341;BME280;61578;52.002;5.468;2022-08-21T00:48:06;101666.38;;;13.81;86.54
73341;BME280;61578;52.002;5.468;2022-08-21T00:48:37;101666.28;;;13.82;86.75
73341;BME280;61578;52.002;5.468;2022-08-21T00:49:09;101665.06;;;13.74;86.45
73341;BME280;61578;52.002;5.468;2022-08-21T00:49:41;101657.50;;;13.80;87.06
73341;BME280;61578;52.002;5.468;2022-08-21T00:50:12;101668.00;;;13.83;86.44
73341;BME280;61578;52.002;5.468;2022-08-21T00:50:57;101662.66;;;13.83;86.95
73341;BME280;61578;52.002;5.468;2022-08-21T00:51:50;101671.53;;;13.84;86.79
73341;BME280;61578;52.002;5.468;2022-08-21T00:52:29;101613.06;;;13.52;86.88
73341;BME280;61578;52.002;5.468;2022-08-21T00:53:06;101664.25;;;13.86;86.86
73341;BME280;61578;52.002;5.468;2022-08-21T00:53:43;101662.53;;;13.85;86.50
73341;BME280;61578;52.002;5.468;2022-08-21T00:54:17;101637.59;;;13.72;86.77
73341;BME280;61578;52.002;5.468;2022-08-21T00:54:53;101616.28;;;13.57;86.79
73341;BME280;61578;52.002;5.468;2022-08-21T00:55:26;101649.78;;;13.76;87.14
73341;BME280;61578;52.002;5.468;2022-08-21T00:56:00;101565.66;;;13.29;86.79
73341;BME280;61578;52.002;5.468;2022-08-21T00:56:34;101663.78;;;13.79;86.61
73341;BME280;61578;52.002;5.468;2022-08-21T00:57:13;101647.19;;;13.74;86.78
73341;BME280;61578;52.002;5.468;2022-08-21T00:57:54;101671.31;;;13.87;86.65
73341;BME280;61578;52.002;5.468;2022-08-21T00:58:29;101666.06;;;13.85;86.59
73341;BME280;61578;52.002;5.468;2022-08-21T00:59:02;101675.03;;;13.84;86.72
73341;BME280;61578;52.002;5.468;2022-08-21T00:59:37;101661.31;;;13.76;86.45
73341;BME280;61578;52.002;5.468;2022-08-21T01:00:17;101668.00;;;13.83;86.67
73341;BME280;61578;52.002;5.468;2022-08-21T01:00:51;101661.88;;;13.81;86.39
73341;BME280;61578;52.002;5.468;2022-08-21T01:01:22;101667.31;;;13.80;86.20
73341;BME280;61578;52.002;5.468;2022-08-21T01:01:53;101657.25;;;13.71;86.90
73341;BME280;61578;52.002;5.468;2022-08-21T01:02:24;101665.69;;;13.77;86.80
73341;BME280;61578;52.002;5.468;2022-08-21T01:02:57;101662.56;;;13.71;86.62
73341;BME280;61578;52.002;5.468;2022-08-21T01:03:28;101653.72;;;13.70;86.65
73341;BME280;61578;52.002;5.468;2022-08-21T01:03:59;101656.38;;;13.70;87.26
73341;BME280;61578;52.002;5.468;2022-08-21T01:04:30;101660.84;;;13.70;86.88
73341;BME280;61578;52.002;5.468;2022-08-21T01:05:01;101661.81;;;13.69;86.79
73341;BME280;61578;52.002;5.468;2022-08-21T01:05:32;101653.13;;;13.65;86.95
73341;BME280;61578;52.002;5.468;2022-08-21T01:06:04;101652.00;;;13.69;87.07
73341;BME280;61578;52.002;5.468;2022-08-21T01:06:35;101662.47;;;13.72;86.71
73341;BME280;61578;52.002;5.468;2022-08-21T01:07:06;101669.63;;;13.72;87.03
73341;BME280;61578;52.002;5.468;2022-08-21T01:07:37;101661.06;;;13.67;87.11
73341;BME280;61578;52.002;5.468;2022-08-21T01:08:10;101663.44;;;13.71;86.94
73341;BME280;61578;52.002;5.468;2022-08-21T01:08:41;101645.34;;;13.62;87.21
73341;BME280;61578;52.002;5.468;2022-08-21T01:09:13;101659.16;;;13.69;86.91
73341;BME280;61578;52.002;5.468;2022-08-21T01:09:46;101656.47;;;13.69;87.53
73341;BME280;61578;52.002;5.468;2022-08-21T01:10:18;101604.13;;;13.39;87.36
73341;BME280;61578;52.002;5.468;2022-08-21T01:10:52;101650.19;;;13.70;87.49
73341;BME280;61578;52.002;5.468;2022-08-21T01:11:24;101650.59;;;13.63;87.36
73341;BME280;61578;52.002;5.468;2022-08-21T01:11:55;101628.91;;;13.41;87.57
73341;BME280;61578;52.002;5.468;2022-08-21T01:12:26;101570.22;;;13.13;87.33
73341;BME280;61578;52.002;5.468;2022-08-21T01:12:58;101652.94;;;13.68;87.40
73341;BME280;61578;52.002;5.468;2022-08-21T01:13:31;101655.53;;;13.70;87.64
73341;BME280;61578;52.002;5.468;2022-08-21T01:14:04;101654.66;;;13.69;87.43
73341;BME280;61578;52.002;5.468;2022-08-21T01:14:35;101654.75;;;13.68;87.24
73341;BME280;61578;52.002;5.468;2022-08-21T01:15:09;101652.94;;;13.68;87.39
73341;BME280;61578;52.002;5.468;2022-08-21T01:15:44;101669.81;;;13.69;87.52
73341;BME280;61578;52.002;5.468;2022-08-21T01:16:20;101619.72;;;13.45;87.33
73341;BME280;61578;52.002;5.468;2022-08-21T01:16:54;101596.41;;;13.35;87.40
73341;BME280;61578;52.002;5.468;2022-08-21T01:17:27;101643.41;;;13.64;87.15
73341;BME280;61578;52.002;5.468;2022-08-21T01:17:58;101665.34;;;13.69;87.39
73341;BME280;61578;52.002;5.468;2022-08-21T01:18:29;101645.25;;;13.63;86.90
73341;BME280;61578;52.002;5.468;2022-08-21T01:18:59;101660.84;;;13.70;87.38
73341;BME280;61578;52.002;5.468;2022-08-21T01:19:30;101654.09;;;13.64;86.99
73341;BME280;61578;52.002;5.468;2022-08-21T01:20:05;101661.81;;;13.69;87.24
73341;BME280;61578;52.002;5.468;2022-08-21T01:20:44;101583.00;;;13.22;86.73
73341;BME280;61578;52.002;5.468;2022-08-21T01:21:34;101621.44;;;13.46;87.00
73341;BME280;61578;52.002;5.468;2022-08-21T01:22:06;101621.53;;;13.45;87.38
73341;BME280;61578;52.002;5.468;2022-08-21T01:22:37;101615.34;;;13.44;87.17
73341;BME280;61578;52.002;5.468;2022-08-21T01:23:08;101659.16;;;13.69;87.14
73341;BME280;61578;52.002;5.468;2022-08-21T01:23:42;101660.09;;;13.68;87.44
73341;BME280;61578;52.002;5.468;2022-08-21T01:24:15;101644.28;;;13.64;87.33
73341;BME280;61578;52.002;5.468;2022-08-21T01:24:45;101657.25;;;13.71;87.50
73341;BME280;61578;52.002;5.468;2022-08-21T01:25:17;101652.28;;;13.64;87.33
73341;BME280;61578;52.002;5.468;2022-08-21T01:25:49;101609.28;;;13.42;87.67
73341;BME280;61578;52.002;5.468;2022-08-21T01:26:24;101646.94;;;13.64;87.37
73341;BME280;61578;52.002;5.468;2022-08-21T01:26:58;101658.09;;;13.71;87.64
73341;BME280;61578;52.002;5.468;2022-08-21T01:27:30;101666.09;;;13.71;87.36
73341;BME280;61578;52.002;5.468;2022-08-21T01:28:09;101638.56;;;13.56;87.09
73341;BME280;61578;52.002;5.468;2022-08-21T01:28:59;101649.41;;;13.68;87.54
73341;BME280;61578;52.002;5.468;2022-08-21T01:29:41;101657.06;;;13.74;87.18
73341;BME280;61578;52.002;5.468;2022-08-21T01:30:23;101589.25;;;13.35;87.29
73341;BME280;61578;52.002;5.468;2022-08-21T01:30:57;101641.06;;;13.59;87.45
73341;BME280;61578;52.002;5.468;2022-08-21T01:31:29;101659.72;;;13.74;87.59
73341;BME280;61578;52.002;5.468;2022-08-21T01:32:08;101626.50;;;13.51;87.38
73341;BME280;61578;52.002;5.468;2022-08-21T01:32:42;101662.38;;;13.74;87.59
73341;BME280;61578;52.002;5.468;2022-08-21T01:33:14;101653.81;;;13.69;87.69
73341;BME280;61578;52.002;5.468;2022-08-21T01:33:44;101664.06;;;13.75;87.56
73341;BME280;61578;52.002;5.468;2022-08-21T01:34:15;101661.41;;;13.75;87.53
73341;BME280;61578;52.002;5.468;2022-08-21T01:34:48;101586.81;;;13.32;87.58
73341;BME280;61578;52.002;5.468;2022-08-21T01:35:21;101640.88;;;13.62;87.17
73341;BME280;61578;52.002;5.468;2022-08-21T01:35:52;101632.38;;;13.56;87.11
73341;BME280;61578;52.002;5.468;2022-08-21T01:36:23;101664.19;;;13.73;87.31
73341;BME280;61578;52.002;5.468;2022-08-21T01:36:55;101656.03;;;13.62;87.09
73341;BME280;61578;52.002;5.468;2022-08-21T01:37:26;101629.94;;;13.53;87.71
73341;BME280;61578;52.002;5.468;2022-08-21T01:37:57;101660.69;;;13.73;87.25
73341;BME280;61578;52.002;5.468;2022-08-21T01:38:28;101660.09;;;13.68;87.46
73341;BME280;61578;52.002;5.468;2022-08-21T01:38:59;101658.97;;;13.72;87.16
73341;BME280;61578;52.002;5.468;2022-08-21T01:39:30;101619.53;;;13.48;86.88
73341;BME280;61578;52.002;5.468;2022-08-21T01:40:04;101653.25;;;13.63;87.18
73341;BME280;61578;52.002;5.468;2022-08-21T01:40:36;101631.75;;;13.52;87.36
73341;BME280;61578;52.002;5.468;2022-08-21T01:41:07;101648.88;;;13.62;86.91
73341;BME280;61578;52.002;5.468;2022-08-21T01:41:38;101663.63;;;13.68;87.14
73341;BME280;61578;52.002;5.468;2022-08-21T01:42:08;101657.44;;;13.68;87.05
73341;BME280;61578;52.002;5.468;2022-08-21T01:42:39;101654.75;;;13.68;87.52
73341;BME280;61578;52.002;5.468;2022-08-21T01:43:10;101661.72;;;13.70;87.75
73341;BME280;61578;52.002;5.468;2022-08-21T01:43:42;101662.66;;;13.69;87.06
73341;BME280;61578;52.002;5.468;2022-08-21T01:44:13;101658.28;;;13.68;87.16
73341;BME280;61578;52.002;5.468;2022-08-21T01:44:44;101654.22;;;13.62;87.04
73341;BME280;61578;52.002;5.468;2022-08-21T01:45:15;101655.72;;;13.67;87.46
73341;BME280;61578;52.002;5.468;2022-08-21T01:45:46;101656.56;;;13.67;87.75
73341;BME280;61578;52.002;5.468;2022-08-21T01:46:17;101640.09;;;13.60;87.68
73341;BME280;61578;52.002;5.468;2022-08-21T01:46:48;101654.66;;;13.69;87.51
73341;BME280;61578;52.002;5.468;2022-08-21T01:47:20;101655.81;;;13.65;87.62
73341;BME280;61578;52.002;5.468;2022-08-21T01:47:50;101661.72;;;13.70;87.52
73341;BME280;61578;52.002;5.468;2022-08-21T01:48:21;101616.00;;;13.48;87.21
73341;BME280;61578;52.002;5.468;2022-08-21T01:48:52;101648.56;;;13.67;87.65
73341;BME280;61578;52.002;5.468;2022-08-21T01:49:23;101627.13;;;13.54;87.30
73341;BME280;61578;52.002;5.468;2022-08-21T01:49:53;101651.41;;;13.64;87.41
73341;BME280;61578;52.002;5.468;2022-08-21T01:50:24;101608.50;;;13.40;87.64
73341;BME280;61578;52.002;5.468;2022-08-21T01:50:55;101659.16;;;13.69;87.45
73341;BME280;61578;52.002;5.468;2022-08-21T01:51:26;101653.81;;;13.69;87.82
73341;BME280;61578;52.002;5.468;2022-08-21T01:51:57;101657.34;;;13.69;87.58
73341;BME280;61578;52.002;5.468;2022-08-21T01:52:29;101644.59;;;13.60;87.55
73341;BME280;61578;52.002;5.468;2022-08-21T01:52:59;101647.63;;;13.68;87.46
73341;BME280;61578;52.002;5.468;2022-08-21T01:53:32;101629.06;;;13.52;87.57
73341;BME280;61578;52.002;5.468;2022-08-21T01:54:06;101650.28;;;13.68;87.53
73341;BME280;61578;52.002;5.468;2022-08-21T01:54:38;101664.47;;;13.69;87.77
73341;BME280;61578;52.002;5.468;2022-08-21T01:55:10;101652.75;;;13.71;87.79
73341;BME280;61578;52.002;5.468;2022-08-21T01:55:43;101650.94;;;13.72;87.65
73341;BME280;61578;52.002;5.468;2022-08-21T01:56:16;101653.63;;;13.72;87.28
73341;BME280;61578;52.002;5.468;2022-08-21T01:56:52;101652.75;;;13.71;87.54
73341;BME280;61578;52.002;5.468;2022-08-21T01:57:24;101658.38;;;13.67;87.26
73341;BME280;61578;52.002;5.468;2022-08-21T01:57:58;101652.00;;;13.69;87.32
73341;BME280;61578;52.002;5.468;2022-08-21T01:58:29;101631.75;;;13.52;87.34
73341;BME280;61578;52.002;5.468;2022-08-21T01:59:00;101653.03;;;13.67;87.47
73341;BME280;61578;52.002;5.468;2022-08-21T01:59:31;101648.66;;;13.66;87.64
73341;BME280;61578;52.002;5.468;2022-08-21T02:00:05;101641.25;;;13.56;88.06
73341;BME280;61578;52.002;5.468;2022-08-21T02:00:38;101651.41;;;13.64;87.53
73341;BME280;61578;52.002;5.468;2022-08-21T02:01:09;101653.34;;;13.62;87.80
73341;BME280;61578;52.002;5.468;2022-08-21T02:01:41;101641.47;;;13.53;88.10
73341;BME280;61578;52.002;5.468;2022-08-21T02:02:12;101651.53;;;13.62;88.14
73341;BME280;61578;52.002;5.468;2022-08-21T02:02:43;101646.19;;;13.62;87.56
73341;BME280;61578;52.002;5.468;2022-08-21T02:03:13;101646.19;;;13.62;87.47
73341;BME280;61578;52.002;5.468;2022-08-21T02:03:44;101652.50;;;13.61;87.38
73341;BME280;61578;52.002;5.468;2022-08-21T02:04:15;101640.38;;;13.56;87.87
73341;BME280;61578;52.002;5.468;2022-08-21T02:04:45;101634.59;;;13.49;87.32
73341;BME280;61578;52.002;5.468;2022-08-21T02:05:17;101627.53;;;13.48;87.36
73341;BME280;61578;52.002;5.468;2022-08-21T02:05:48;101649.06;;;13.59;87.75
73341;BME280;61578;52.002;5.468;2022-08-21T02:06:19;101645.44;;;13.60;87.68
73341;BME280;61578;52.002;5.468;2022-08-21T02:06:50;101648.19;;;13.59;87.61
73341;BME280;61578;52.002;5.468;2022-08-21T02:07:21;101648.09;;;13.60;87.42
73341;BME280;61578;52.002;5.468;2022-08-21T02:07:53;101635.13;;;13.54;87.78
73341;BME280;61578;52.002;5.468;2022-08-21T02:08:24;101652.69;;;13.58;87.35
73341;BME280;61578;52.002;5.468;2022-08-21T02:08:55;101643.72;;;13.59;87.71
73341;BME280;61578;52.002;5.468;2022-08-21T02:09:26;101632.50;;;13.40;87.73
73341;BME280;61578;52.002;5.468;2022-08-21T02:09:57;101637.44;;;13.46;87.51
73341;BME280;61578;52.002;5.468;2022-08-21T02:10:31;101640.47;;;13.54;87.46
73341;BME280;61578;52.002;5.468;2022-08-21T02:11:02;101650.00;;;13.58;87.69
73341;BME280;61578;52.002;5.468;2022-08-21T02:11:33;101632.47;;;13.54;87.77
73341;BME280;61578;52.002;5.468;2022-08-21T02:12:06;101640.47;;;13.54;87.47
73341;BME280;61578;52.002;5.468;2022-08-21T02:12:36;101638.56;;;13.56;87.34
73341;BME280;61578;52.002;5.468;2022-08-21T02:13:07;101641.16;;;13.58;87.61
73341;BME280;61578;52.002;5.468;2022-08-21T02:13:39;101623.47;;;13.43;87.68
73341;BME280;61578;52.002;5.468;2022-08-21T02:14:11;101648.47;;;13.54;87.83
73341;BME280;61578;52.002;5.468;2022-08-21T02:14:44;101624.19;;;13.45;87.56
73341;BME280;61578;52.002;5.468;2022-08-21T02:15:15;101608.78;;;13.36;87.79
73341;BME280;61578;52.002;5.468;2022-08-21T02:15:46;101613.06;;;13.38;87.73
73341;BME280;61578;52.002;5.468;2022-08-21T02:16:17;101622.69;;;13.41;87.82
73341;BME280;61578;52.002;5.468;2022-08-21T02:16:47;101647.63;;;13.54;87.88
73341;BME280;61578;52.002;5.468;2022-08-21T02:17:18;101636.94;;;13.54;87.90
73341;BME280;61578;52.002;5.468;2022-08-21T02:17:53;101641.47;;;13.53;87.49
73341;BME280;61578;52.002;5.468;2022-08-21T02:18:26;101610.69;;;13.34;87.72
73341;BME280;61578;52.002;5.468;2022-08-21T02:18:56;101647.75;;;13.52;87.70
73341;BME280;61578;52.002;5.468;2022-08-21T02:19:27;101638.97;;;13.50;87.68
73341;BME280;61578;52.002;5.468;2022-08-21T02:19:58;101642.59;;;13.49;87.43
73341;BME280;61578;52.002;5.468;2022-08-21T02:20:35;101635.09;;;13.42;87.67
73341;BME280;61578;52.002;5.468;2022-08-21T02:21:09;101586.81;;;13.18;88.10
73341;BME280;61578;52.002;5.468;2022-08-21T02:21:40;101646.50;;;13.44;87.67
73341;BME280;61578;52.002;5.468;2022-08-21T02:22:11;101626.31;;;13.40;87.33
73341;BME280;61578;52.002;5.468;2022-08-21T02:22:42;101637.44;;;13.46;87.96
73341;BME280;61578;52.002;5.468;2022-08-21T02:23:13;101628.97;;;13.40;87.77
73341;BME280;61578;52.002;5.468;2022-08-21T02:23:45;101584.38;;;13.13;87.50
73341;BME280;61578;52.002;5.468;2022-08-21T02:24:16;101641.28;;;13.42;87.71
73341;BME280;61578;52.002;5.468;2022-08-21T02:24:46;101602.22;;;13.27;87.86
73341;BME280;61578;52.002;5.468;2022-08-21T02:25:19;101580.88;;;13.13;87.72
73341;BME280;61578;52.002;5.468;2022-08-21T02:25:56;101637.53;;;13.45;87.92
73341;BME280;61578;52.002;5.468;2022-08-21T02:26:28;101635.81;;;13.44;87.77
73341;BME280;61578;52.002;5.468;2022-08-21T02:26:59;101635.72;;;13.45;87.75
73341;BME280;61578;52.002;5.468;2022-08-21T02:27:37;101620.13;;;13.39;87.52
73341;BME280;61578;52.002;5.468;2022-08-21T02:28:14;101641.06;;;13.45;87.92
73341;BME280;61578;52.002;5.468;2022-08-21T02:28:46;101637.53;;;13.45;88.09
73341;BME280;61578;52.002;5.468;2022-08-21T02:29:17;101634.88;;;13.45;87.58
73341;BME280;61578;52.002;5.468;2022-08-21T02:29:47;101637.44;;;13.46;87.91
73341;BME280;61578;52.002;5.468;2022-08-21T02:30:25;101641.16;;;13.44;87.52
73341;BME280;61578;52.002;5.468;2022-08-21T02:30:59;101622.97;;;13.36;87.53
73341;BME280;61578;52.002;5.468;2022-08-21T02:31:30;101613.75;;;13.27;87.71
73341;BME280;61578;52.002;5.468;2022-08-21T02:32:01;101630.97;;;13.36;88.16
73341;BME280;61578;52.002;5.468;2022-08-21T02:32:32;101564.13;;;12.97;87.61
73341;BME280;61578;52.002;5.468;2022-08-21T02:33:03;101633.28;;;13.42;87.90
73341;BME280;61578;52.002;5.468;2022-08-21T02:33:34;101603.25;;;13.24;87.58
73341;BME280;61578;52.002;5.468;2022-08-21T02:34:05;101620.31;;;13.36;87.83
73341;BME280;61578;52.002;5.468;2022-08-21T02:34:36;101594.22;;;13.13;87.87
73341;BME280;61578;52.002;5.468;2022-08-21T02:35:08;101635.72;;;13.45;88.16
73341;BME280;61578;52.002;5.468;2022-08-21T02:35:42;101630.47;;;13.44;87.89
73341;BME280;61578;52.002;5.468;2022-08-21T02:36:14;101616.88;;;13.34;87.76
73341;BME280;61578;52.002;5.468;2022-08-21T02:36:45;101639.34;;;13.44;87.97
73341;BME280;61578;52.002;5.468;2022-08-21T02:37:16;101637.66;;;13.43;87.74
73341;BME280;61578;52.002;5.468;2022-08-21T02:37:53;101613.47;;;13.32;87.66
73341;BME280;61578;52.002;5.468;2022-08-21T02:38:29;101609.28;;;13.28;87.88
73341;BME280;61578;52.002;5.468;2022-08-21T02:39:03;101625.28;;;13.42;87.74
73341;BME280;61578;52.002;5.468;2022-08-21T02:39:33;101603.25;;;13.24;87.81
73341;BME280;61578;52.002;5.468;2022-08-21T02:40:04;101519.38;;;12.73;87.83
73341;BME280;61578;52.002;5.468;2022-08-21T02:40:38;101627.72;;;13.45;87.95
73341;BME280;61578;52.002;5.468;2022-08-21T02:41:13;101595.25;;;13.24;87.97
73341;BME280;61578;52.002;5.468;2022-08-21T02:41:47;101630.31;;;13.47;88.13
73341;BME280;61578;52.002;5.468;2022-08-21T02:42:17;101624.09;;;13.46;88.01
73341;BME280;61578;52.002;5.468;2022-08-21T02:42:49;101625.81;;;13.47;87.92
73341;BME280;61578;52.002;5.468;2022-08-21T02:43:22;101628.50;;;13.47;88.26
73341;BME280;61578;52.002;5.468;2022-08-21T02:43:54;101623.16;;;13.47;87.92
73341;BME280;61578;52.002;5.468;2022-08-21T02:44:25;101606.13;;;13.36;87.79
73341;BME280;61578;52.002;5.468;2022-08-21T02:44:56;101626.59;;;13.49;87.74
73341;BME280;61578;52.002;5.468;2022-08-21T02:45:28;101624.00;;;13.48;87.82
73341;BME280;61578;52.002;5.468;2022-08-21T02:45:59;101617.06;;;13.45;88.47
73341;BME280;61578;52.002;5.468;2022-08-21T02:46:30;101610.31;;;13.40;87.99
73341;BME280;61578;52.002;5.468;2022-08-21T02:47:02;101606.78;;;13.39;87.96
73341;BME280;61578;52.002;5.468;2022-08-21T02:47:32;101626.69;;;13.48;87.83
73341;BME280;61578;52.002;5.468;2022-08-21T02:48:10;101622.97;;;13.50;88.43
73341;BME280;61578;52.002;5.468;2022-08-21T02:48:43;101622.88;;;13.52;88.04
73341;BME280;61578;52.002;5.468;2022-08-21T02:49:13;101613.44;;;13.46;87.92
73341;BME280;61578;52.002;5.468;2022-08-21T02:49:44;101619.25;;;13.53;87.94
73341;BME280;61578;52.002;5.468;2022-08-21T02:50:18;101623.81;;;13.51;87.63